Time;durP1;ratioP1;P1;durP2;ratioP2;P2;SDS_P1;SDS_P2;PMS_P1;PMS_P2;Temp;Humidity;BMP_temperature;BMP_pressure;BME280_temperature;BME280_humidity;BME280_pressure;Samples;Min_cycle;Max_cycle;Signal;HPM_P1;HPM_P2
2022/02/02 00:01:14;;;;;;;5.70;1.10;;;;;;;;;;4956070;28;20085;-61
2022/02/02 00:03:40;;;;;;;3.17;0.63;;;;;;;;;;4935299;29;20023;-62
2022/02/02 00:06:19;;;;;;;4.13;0.47;;;;;;;;;;4954738;28;20031;-61
2022/02/02 00:08:55;;;;;;;5.05;0.90;;;;;;;;;;4954394;29;20028;-62
2022/02/02 00:14:36;;;;;;;2.53;1.17;;;;;;;;;;4934710;29;20583;-63
2022/02/02 00:17:07;;;;;;;5.78;0.57;;;;;;;;;;4933401;29;20050;-64
2022/02/02 00:22:03;;;;;;;3.35;1.25;;;;;;;;;;4927535;29;20090;-64
2022/02/02 00:27:14;;;;;;;9.43;1.00;;;;;;;;;;4933847;29;20039;-62
2022/02/02 00:29:46;;;;;;;5.10;0.85;;;;;;;;;;4933890;29;20031;-62
2022/02/02 00:34:36;;;;;;;8.25;1.27;;;;;;;;;;4933404;29;20119;-63
2022/02/02 00:37:01;;;;;;;8.18;1.45;;;;;;;;;;4933365;29;20027;-62
2022/02/02 00:39:28;;;;;;;6.07;0.65;;;;;;;;;;4934091;29;20036;-64
2022/02/02 00:41:56;;;;;;;2.78;0.40;;;;;;;;;;4934338;29;20094;-62
2022/02/02 00:44:21;;;;;;;6.13;0.98;;;;;;;;;;4937577;29;20035;-63
2022/02/02 00:46:46;;;;;;;4.70;1.20;;;;;;;;;;4954737;28;20023;-63
2022/02/02 00:49:13;;;;;;;3.70;0.52;;;;;;;;;;4954736;29;20022;-63
2022/02/02 00:54:04;;;;;;;4.22;0.57;;;;;;;;;;4954854;29;20086;-63
2022/02/02 00:56:30;;;;;;;7.72;0.85;;;;;;;;;;4954486;29;20019;-63
2022/02/02 00:58:55;;;;;;;6.75;0.43;;;;;;;;;;4954850;29;20022;-61
2022/02/02 01:01:20;;;;;;;15.70;0.68;;;;;;;;;;4954711;29;20034;-62
2022/02/02 01:03:45;;;;;;;7.75;0.88;;;;;;;;;;4953527;29;20070;-63
2022/02/02 01:06:14;;;;;;;5.35;0.68;;;;;;;;;;4954380;29;20038;-62
2022/02/02 01:08:55;;;;;;;8.23;1.02;;;;;;;;;;4954253;29;20102;-61
2022/02/02 01:21:56;;;;;;;8.70;1.67;;;;;;;;;;4951487;29;20118;-62
2022/02/02 01:29:47;;;;;;;4.43;1.00;;;;;;;;;;4946832;28;20389;-63
2022/02/02 01:32:12;;;;;;;12.10;1.05;;;;;;;;;;4935564;29;20028;-62
2022/02/02 01:34:37;;;;;;;4.13;0.73;;;;;;;;;;4952677;29;20011;-62
2022/02/02 01:37:03;;;;;;;8.70;1.27;;;;;;;;;;4953878;28;20120;-63
2022/02/02 01:39:29;;;;;;;3.20;1.05;;;;;;;;;;4953754;28;20031;-63
2022/02/02 01:41:56;;;;;;;7.10;0.50;;;;;;;;;;4954200;29;20559;-62
2022/02/02 01:44:39;;;;;;;11.52;1.48;;;;;;;;;;4954000;28;20464;-62
2022/02/02 01:47:07;;;;;;;3.92;0.93;;;;;;;;;;4954101;29;20507;-62
2022/02/02 01:55:03;;;;;;;9.00;1.45;;;;;;;;;;4949378;29;20134;-59
2022/02/02 01:58:01;;;;;;;0.25;0.10;;;;;;;;;;4954128;28;20218;-62
2022/02/02 02:00:26;;;;;;;8.32;1.67;;;;;;;;;;4953349;28;20031;-62
2022/02/02 02:02:51;;;;;;;8.65;0.93;;;;;;;;;;4954023;29;20046;-62
2022/02/02 02:05:16;;;;;;;4.40;1.00;;;;;;;;;;4951604;29;20031;-63
2022/02/02 02:07:42;;;;;;;5.82;0.47;;;;;;;;;;4953427;29;20468;-64
2022/02/02 02:10:07;;;;;;;2.95;0.40;;;;;;;;;;4953374;28;20034;-62
2022/02/02 02:12:39;;;;;;;6.00;0.68;;;;;;;;;;4953642;28;20468;-63
2022/02/02 02:15:07;;;;;;;5.88;0.95;;;;;;;;;;4952058;29;20035;-62
2022/02/02 02:17:32;;;;;;;10.68;1.05;;;;;;;;;;4953517;29;20464;-64
2022/02/02 02:19:57;;;;;;;4.65;0.93;;;;;;;;;;4951351;29;20031;-63
2022/02/02 02:22:25;;;;;;;4.70;0.47;;;;;;;;;;4949148;28;20030;-62
2022/02/02 02:24:52;;;;;;;6.78;0.93;;;;;;;;;;4952602;29;20051;-62
2022/02/02 02:27:22;;;;;;;5.22;0.60;;;;;;;;;;4953880;28;20027;-64
2022/02/02 02:32:59;;;;;;;6.77;1.17;;;;;;;;;;4953963;28;20038;-62
2022/02/02 02:35:54;;;;;;;5.40;0.63;;;;;;;;;;4953035;29;20110;-62
2022/02/02 02:57:02;;;;;;;7.25;0.85;;;;;;;;;;4956451;29;20038;-62
2022/02/02 02:59:41;;;;;;;8.07;0.55;;;;;;;;;;4956641;29;20023;-62
2022/02/02 03:32:52;;;;;;;5.15;0.17;;;;;;;;;;4935507;29;20030;-62
2022/02/02 03:51:27;;;;;;;3.92;1.00;;;;;;;;;;4933533;29;20058;-61
2022/02/02 04:07:32;;;;;;;1.95;0.47;;;;;;;;;;4949477;29;20051;-62
2022/02/02 04:10:03;;;;;;;2.00;0.40;;;;;;;;;;4952617;29;20031;-62
2022/02/02 04:12:43;;;;;;;7.38;1.42;;;;;;;;;;4953613;29;20471;-63
2022/02/02 04:51:27;;;;;;;5.45;0.20;;;;;;;;;;4936239;29;20441;-66
2022/02/02 05:03:51;;;;;;;0.00;0.00;;;;;;;;;;4935272;29;20440;-67
2022/02/02 05:08:56;;;;;;;4.40;0.20;;;;;;;;;;4935069;29;20043;-69
2022/02/02 05:22:08;;;;;;;0.00;0.00;;;;;;;;;;4929927;29;20054;-68
2022/02/02 05:43:41;;;;;;;0.00;0.00;;;;;;;;;;4953489;29;20037;-68
2022/02/02 05:49:51;;;;;;;0.00;0.00;;;;;;;;;;4953762;28;20035;-67
2022/02/02 05:51:44;;;;;;;0.00;0.00;;;;;;;;;;4949772;28;20449;-67
2022/02/02 05:54:10;;;;;;;0.00;0.00;;;;;;;;;;4953192;28;20049;-66
2022/02/02 05:56:41;;;;;;;0.00;0.00;;;;;;;;;;4940699;29;20031;-66
2022/02/02 05:59:09;;;;;;;1.80;1.10;;;;;;;;;;4966912;28;20031;-64
2022/02/02 06:01:35;;;;;;;0.00;0.00;;;;;;;;;;4953366;28;20042;-65
2022/02/02 06:04:00;;;;;;;0.00;0.00;;;;;;;;;;4952374;28;20106;-64
2022/02/02 06:06:26;;;;;;;0.00;0.00;;;;;;;;;;4952855;28;20023;-64
2022/02/02 06:08:52;;;;;;;0.00;0.00;;;;;;;;;;4953095;28;20023;-63
2022/02/02 06:11:18;;;;;;;0.00;0.00;;;;;;;;;;4950790;29;20396;-66
2022/02/02 06:13:51;;;;;;;0.00;0.00;;;;;;;;;;4951602;28;20054;-68
2022/02/02 06:16:17;;;;;;;0.00;0.00;;;;;;;;;;4947888;28;20023;-68
2022/02/02 06:18:46;;;;;;;0.00;0.00;;;;;;;;;;4953659;29;20385;-68
2022/02/02 06:21:12;;;;;;;0.00;0.00;;;;;;;;;;4950540;29;20106;-69
2022/02/02 06:23:46;;;;;;;0.00;0.00;;;;;;;;;;4953056;28;20019;-68
2022/02/02 06:26:16;;;;;;;0.00;0.00;;;;;;;;;;4950993;29;20039;-69
2022/02/02 06:28:45;;;;;;;0.00;0.00;;;;;;;;;;4953682;28;20096;-68
2022/02/02 06:31:11;;;;;;;0.00;0.00;;;;;;;;;;4951999;28;20034;-70
2022/02/02 06:33:37;;;;;;;0.00;0.00;;;;;;;;;;4953485;28;20023;-72
2022/02/02 06:36:04;;;;;;;0.00;0.00;;;;;;;;;;4955139;28;20050;-69
2022/02/02 06:38:30;;;;;;;0.00;0.00;;;;;;;;;;4952906;29;20042;-69
2022/02/02 06:40:56;;;;;;;0.00;0.00;;;;;;;;;;4953461;28;20121;-70
2022/02/02 06:43:22;;;;;;;0.00;0.00;;;;;;;;;;4953677;28;20055;-71
2022/02/02 06:45:48;;;;;;;0.00;0.00;;;;;;;;;;4952892;28;20043;-70
2022/02/02 06:48:14;;;;;;;0.00;0.00;;;;;;;;;;4953191;29;20035;-63
2022/02/02 06:50:42;;;;;;;0.00;0.00;;;;;;;;;;4950531;28;20046;-69
2022/02/02 06:53:25;;;;;;;0.00;0.00;;;;;;;;;;4952875;28;20016;-70
2022/02/02 06:56:16;;;;;;;0.00;0.00;;;;;;;;;;4951700;29;20463;-67
2022/02/02 06:59:05;;;;;;;0.00;0.00;;;;;;;;;;4952456;29;20038;-69
2022/02/02 07:01:49;;;;;;;0.00;0.00;;;;;;;;;;4964685;28;20508;-68
2022/02/02 07:04:40;;;;;;;0.00;0.00;;;;;;;;;;4953482;28;20023;-70
2022/02/02 07:07:25;;;;;;;0.00;0.00;;;;;;;;;;4952009;28;20094;-69
2022/02/02 07:10:08;;;;;;;0.00;0.00;;;;;;;;;;4953299;28;20368;-67
2022/02/02 07:21:36;;;;;;;0.00;0.00;;;;;;;;;;4926993;29;20601;-67
2022/02/02 07:26:29;;;;;;;0.00;0.00;;;;;;;;;;4931674;29;20142;-67
2022/02/02 07:29:11;;;;;;;0.00;0.00;;;;;;;;;;4943385;29;20051;-66
2022/02/02 07:34:21;;;;;;;0.00;0.00;;;;;;;;;;4935568;29;20424;-67
2022/02/02 07:36:54;;;;;;;0.00;0.00;;;;;;;;;;4934644;29;20027;-67
2022/02/02 07:39:19;;;;;;;0.00;0.00;;;;;;;;;;4931228;29;20424;-64
2022/02/02 07:41:47;;;;;;;0.00;0.00;;;;;;;;;;4934982;29;20034;-65
2022/02/02 07:44:17;;;;;;;0.00;0.00;;;;;;;;;;4935393;29;20039;-64
2022/02/02 07:46:47;;;;;;;0.00;0.00;;;;;;;;;;4935222;29;20155;-66
2022/02/02 07:49:14;;;;;;;0.00;0.00;;;;;;;;;;4934002;29;20135;-65
2022/02/02 07:51:41;;;;;;;0.00;0.00;;;;;;;;;;4930554;29;20040;-63
2022/02/02 07:54:14;;;;;;;0.00;0.00;;;;;;;;;;4934850;29;20020;-66
2022/02/02 07:56:42;;;;;;;0.00;0.00;;;;;;;;;;4936728;29;20039;-65
2022/02/02 07:59:18;;;;;;;0.00;0.00;;;;;;;;;;4955195;29;20039;-64
2022/02/02 08:01:45;;;;;;;0.00;0.00;;;;;;;;;;4956321;29;20020;-64
2022/02/02 08:04:11;;;;;;;0.00;0.00;;;;;;;;;;4956441;29;20038;-61
2022/02/02 08:06:39;;;;;;;0.00;0.00;;;;;;;;;;4955276;28;20031;-63
2022/02/02 08:09:05;;;;;;;0.00;0.00;;;;;;;;;;4956026;29;20051;-62
2022/02/02 08:11:33;;;;;;;0.00;0.00;;;;;;;;;;4964254;28;20059;-57
2022/02/02 08:14:01;;;;;;;0.00;0.00;;;;;;;;;;4956304;28;20099;-63
2022/02/02 08:16:26;;;;;;;0.00;0.00;;;;;;;;;;4956326;28;20474;-65
2022/02/02 08:18:54;;;;;;;0.00;0.00;;;;;;;;;;4954201;29;20026;-63
2022/02/02 08:21:19;;;;;;;0.00;0.00;;;;;;;;;;4950578;28;20026;-61
2022/02/02 08:23:45;;;;;;;0.00;0.00;;;;;;;;;;4951941;29;20027;-64
2022/02/02 08:26:15;;;;;;;0.00;0.00;;;;;;;;;;4955535;29;20047;-63
2022/02/02 08:28:41;;;;;;;0.00;0.00;;;;;;;;;;4955655;29;20027;-63
2022/02/02 08:31:07;;;;;;;0.00;0.00;;;;;;;;;;4954719;28;20078;-62
2022/02/02 08:33:44;;;;;;;0.00;0.00;;;;;;;;;;4948774;29;20579;-64
2022/02/02 08:36:13;;;;;;;0.00;0.00;;;;;;;;;;4953858;29;20392;-67
2022/02/02 08:38:56;;;;;;;0.00;0.00;;;;;;;;;;4953880;28;20492;-63
2022/02/02 08:41:35;;;;;;;0.00;0.00;;;;;;;;;;4951948;29;20397;-65
2022/02/02 08:44:23;;;;;;;0.00;0.00;;;;;;;;;;4954964;29;20038;-67
2022/02/02 08:46:58;;;;;;;0.00;0.00;;;;;;;;;;4955184;28;20047;-66
2022/02/02 08:49:24;;;;;;;7.20;0.70;;;;;;;;;;4954100;29;20491;-64
2022/02/02 08:51:49;;;;;;;1.10;0.22;;;;;;;;;;4946565;28;20031;-66
2022/02/02 09:01:44;;;;;;;2.40;1.15;;;;;;;;;;4954915;28;20499;-64
2022/02/02 09:07:13;;;;;;;8.57;1.00;;;;;;;;;;4932606;29;20397;-65
2022/02/02 09:09:54;;;;;;;10.20;1.05;;;;;;;;;;4932754;29;20030;-65
2022/02/02 09:25:34;;;;;;;12.15;1.85;;;;;;;;;;4932279;29;20076;-63
2022/02/02 09:36:14;;;;;;;7.97;1.00;;;;;;;;;;4932686;29;20126;-64
2022/02/02 09:38:39;;;;;;;14.00;3.10;;;;;;;;;;4948219;29;20495;-64
2022/02/02 09:41:27;;;;;;;11.65;1.70;;;;;;;;;;4953608;28;20023;-63
2022/02/02 09:43:57;;;;;;;13.73;1.60;;;;;;;;;;4953186;28;20035;-63
2022/02/02 09:46:26;;;;;;;10.88;1.45;;;;;;;;;;4945220;28;20039;-62
2022/02/02 09:48:56;;;;;;;12.02;1.92;;;;;;;;;;4953391;29;20063;-63
2022/02/02 09:51:28;;;;;;;12.27;1.27;;;;;;;;;;4953769;28;20022;-61
2022/02/02 09:54:02;;;;;;;7.25;1.30;;;;;;;;;;4943899;29;20031;-63
2022/02/02 09:59:53;;;;;;;7.35;1.77;;;;;;;;;;4931512;29;20039;-63
2022/02/02 10:08:09;;;;;;;10.00;1.25;;;;;;;;;;4929028;29;20310;-61
2022/02/02 10:10:55;;;;;;;9.15;0.63;;;;;;;;;;4935350;29;20034;-64
2022/02/02 10:15:44;;;;;;;8.10;1.17;;;;;;;;;;4931956;29;20508;-64
2022/02/02 10:18:17;;;;;;;2.28;0.20;;;;;;;;;;4931905;29;20039;-62
2022/02/02 10:20:42;;;;;;;10.43;2.10;;;;;;;;;;4928297;29;20123;-62
2022/02/02 10:23:08;;;;;;;2.53;0.52;;;;;;;;;;4929176;29;20123;-63
2022/02/02 10:25:37;;;;;;;10.20;0.80;;;;;;;;;;4943304;29;20150;-62
2022/02/02 10:28:07;;;;;;;4.53;0.95;;;;;;;;;;4945009;29;20043;-60
2022/02/02 10:30:32;;;;;;;7.38;0.85;;;;;;;;;;4932061;29;20555;-62
2022/02/02 10:32:59;;;;;;;6.50;0.88;;;;;;;;;;4937766;29;20114;-64
2022/02/02 10:35:27;;;;;;;4.25;0.85;;;;;;;;;;4965712;28;20019;-65
2022/02/02 10:37:57;;;;;;;7.40;0.93;;;;;;;;;;4947716;28;20055;-64
2022/02/02 10:40:43;;;;;;;7.78;0.95;;;;;;;;;;4948222;28;20420;-65
2022/02/02 10:43:38;;;;;;;4.57;0.45;;;;;;;;;;4953211;28;20310;-66
2022/02/02 10:46:11;;;;;;;9.63;1.05;;;;;;;;;;4960039;28;20110;-64
2022/02/02 10:48:48;;;;;;;4.20;0.30;;;;;;;;;;4948329;29;20019;-65
2022/02/02 10:51:22;;;;;;;6.32;1.30;;;;;;;;;;4947157;29;20039;-65
2022/02/02 10:57:07;;;;;;;5.50;0.50;;;;;;;;;;4946899;28;20079;-64
2022/02/02 10:59:56;;;;;;;5.70;0.93;;;;;;;;;;4952156;29;20031;-64
2022/02/02 11:07:53;;;;;;;8.30;0.57;;;;;;;;;;4950113;29;22593;-65
2022/02/02 11:10:19;;;;;;;7.22;1.45;;;;;;;;;;4956099;29;20110;-66
2022/02/02 11:12:46;;;;;;;9.02;1.00;;;;;;;;;;4956763;29;20058;-65
2022/02/02 11:15:20;;;;;;;5.57;1.10;;;;;;;;;;4956360;28;20032;-58
2022/02/02 11:18:01;;;;;;;5.68;0.68;;;;;;;;;;4956164;28;20019;-66
2022/02/02 11:20:27;;;;;;;9.32;1.52;;;;;;;;;;4952315;28;20023;-63
2022/02/02 11:22:54;;;;;;;8.50;1.77;;;;;;;;;;4951776;28;20130;-63
2022/02/02 11:25:22;;;;;;;4.47;0.90;;;;;;;;;;4956260;28;20047;-66
2022/02/02 11:27:49;;;;;;;6.20;0.80;;;;;;;;;;4956356;28;20027;-66
2022/02/02 11:30:17;;;;;;;5.03;0.95;;;;;;;;;;4955568;29;20031;-66
2022/02/02 11:32:43;;;;;;;6.65;1.15;;;;;;;;;;4956178;29;20050;-65
2022/02/02 11:35:24;;;;;;;9.82;0.90;;;;;;;;;;4955267;29;20045;-67
2022/02/02 11:37:59;;;;;;;5.75;0.95;;;;;;;;;;4955326;28;20054;-64
2022/02/02 11:40:24;;;;;;;7.28;1.05;;;;;;;;;;4955982;28;20091;-65
2022/02/02 11:45:35;;;;;;;4.95;0.93;;;;;;;;;;4955663;29;20023;-65
2022/02/02 11:48:06;;;;;;;5.65;1.05;;;;;;;;;;4956425;28;20031;-65
2022/02/02 11:50:53;;;;;;;2.95;0.43;;;;;;;;;;4952997;28;20039;-62
2022/02/02 11:53:37;;;;;;;1.50;1.23;;;;;;;;;;4953242;28;20134;-62
2022/02/02 11:56:06;;;;;;;7.38;0.65;;;;;;;;;;4955446;28;20107;-65
2022/02/02 11:58:33;;;;;;;7.97;1.15;;;;;;;;;;4954680;29;20027;-64
2022/02/02 12:03:38;;;;;;;2.70;0.50;;;;;;;;;;4955860;29;20050;-64
2022/02/02 12:06:21;;;;;;;7.07;0.98;;;;;;;;;;4955924;29;20027;-65
2022/02/02 12:08:57;;;;;;;6.13;0.43;;;;;;;;;;4954898;28;20039;-65
2022/02/02 12:36:05;;;;;;;4.50;0.60;;;;;;;;;;4933537;29;20457;-66
2022/02/02 12:47:07;;;;;;;11.00;1.58;;;;;;;;;;4934151;29;20236;-65
2022/02/02 12:57:40;;;;;;;4.25;0.50;;;;;;;;;;4933277;29;20028;-65
2022/02/02 13:00:07;;;;;;;5.43;1.00;;;;;;;;;;4932911;29;20142;-66
2022/02/02 13:02:40;;;;;;;4.90;0.57;;;;;;;;;;4950855;29;20043;-66
2022/02/02 13:05:06;;;;;;;4.45;0.40;;;;;;;;;;4954617;29;20113;-65
2022/02/02 13:07:32;;;;;;;2.40;0.30;;;;;;;;;;4953844;29;20039;-63
2022/02/02 13:09:58;;;;;;;5.90;0.68;;;;;;;;;;4952744;29;20023;-65
2022/02/02 13:12:25;;;;;;;3.78;0.38;;;;;;;;;;4954035;28;20015;-64
2022/02/02 13:15:16;;;;;;;1.02;0.20;;;;;;;;;;4954480;28;20027;-65
2022/02/02 13:17:54;;;;;;;7.63;0.70;;;;;;;;;;4953975;29;20030;-62
2022/02/02 13:20:37;;;;;;;6.65;0.50;;;;;;;;;;4950469;28;20054;-67
2022/02/02 13:23:06;;;;;;;1.45;0.32;;;;;;;;;;4967293;28;20034;-66
2022/02/02 13:25:32;;;;;;;7.55;0.70;;;;;;;;;;4952891;28;20187;-65
2022/02/02 13:28:00;;;;;;;4.28;0.45;;;;;;;;;;4952532;28;20392;-66
2022/02/02 13:30:41;;;;;;;3.42;0.70;;;;;;;;;;4953546;29;20392;-66
2022/02/02 13:33:11;;;;;;;3.67;0.40;;;;;;;;;;4953336;29;20026;-65
2022/02/02 13:35:43;;;;;;;3.03;0.35;;;;;;;;;;4953773;28;20018;-65
2022/02/02 13:38:24;;;;;;;3.42;0.45;;;;;;;;;;4953214;28;20031;-64
2022/02/02 13:44:07;;;;;;;3.30;0.30;;;;;;;;;;4951417;29;20224;-65
2022/02/02 13:47:00;;;;;;;4.57;0.45;;;;;;;;;;4953378;28;20479;-65
2022/02/02 13:49:51;;;;;;;6.70;0.52;;;;;;;;;;4957284;28;20037;-65
2022/02/02 13:52:31;;;;;;;2.20;0.43;;;;;;;;;;4944730;28;20110;-64
2022/02/02 13:55:13;;;;;;;1.75;0.90;;;;;;;;;;4939508;28;20051;-64
2022/02/02 13:58:05;;;;;;;7.00;0.93;;;;;;;;;;4949204;28;20457;-64
2022/02/02 14:00:46;;;;;;;2.72;0.40;;;;;;;;;;4949251;28;20065;-63
2022/02/02 14:06:17;;;;;;;4.68;0.57;;;;;;;;;;4949382;29;20061;-64
2022/02/02 14:11:47;;;;;;;3.03;0.90;;;;;;;;;;4949258;29;20515;-64
2022/02/02 14:33:17;;;;;;;3.47;0.55;;;;;;;;;;4953271;29;20078;-64
2022/02/02 14:35:47;;;;;;;2.28;0.43;;;;;;;;;;4951671;29;20079;-66
2022/02/02 14:38:14;;;;;;;4.13;0.30;;;;;;;;;;4950650;28;20065;-64
2022/02/02 14:43:27;;;;;;;5.00;1.10;;;;;;;;;;4953038;28;20031;-63
2022/02/02 14:45:56;;;;;;;7.13;0.73;;;;;;;;;;4952920;29;20483;-65
2022/02/02 14:48:32;;;;;;;6.07;0.88;;;;;;;;;;4951741;28;20035;-65
2022/02/02 14:51:27;;;;;;;2.80;0.98;;;;;;;;;;4947453;28;20027;-65
2022/02/02 15:16:51;;;;;;;4.40;0.40;;;;;;;;;;4952359;29;20027;-64
2022/02/02 15:28:49;;;;;;;3.38;1.20;;;;;;;;;;4952793;28;20106;-63
2022/02/02 15:31:15;;;;;;;0.63;0.63;;;;;;;;;;4951712;29;20054;-64
2022/02/02 15:33:41;;;;;;;3.60;0.10;;;;;;;;;;4952011;28;20492;-64
2022/02/02 15:38:53;;;;;;;0.00;0.00;;;;;;;;;;4951797;29;20094;-64
2022/02/02 15:41:29;;;;;;;7.07;1.35;;;;;;;;;;4949336;29;20151;-65
2022/02/02 15:45:01;;;;;;;2.72;0.40;;;;;;;;;;4951404;29;20027;-65
2022/02/02 15:58:07;;;;;;;4.90;0.40;;;;;;;;;;4950997;28;20024;-64
2022/02/02 16:03:04;;;;;;;1.85;0.45;;;;;;;;;;4948774;28;20039;-62
2022/02/02 16:05:44;;;;;;;1.83;0.38;;;;;;;;;;4950865;28;20082;-63
2022/02/02 16:08:11;;;;;;;2.20;0.73;;;;;;;;;;4952092;28;20053;-64
2022/02/02 16:10:46;;;;;;;3.10;0.55;;;;;;;;;;4950861;28;20023;-64
2022/02/02 16:13:27;;;;;;;0.30;0.30;;;;;;;;;;4951282;29;20462;-65
2022/02/02 16:16:00;;;;;;;0.00;0.00;;;;;;;;;;4949180;28;20026;-63
2022/02/02 16:18:40;;;;;;;2.58;0.40;;;;;;;;;;4949561;28;20023;-63
2022/02/02 16:35:20;;;;;;;0.60;0.20;;;;;;;;;;4955067;29;20062;-66
2022/02/02 16:37:46;;;;;;;5.10;0.32;;;;;;;;;;4954233;28;20031;-67
2022/02/02 16:40:16;;;;;;;4.57;0.17;;;;;;;;;;4953521;28;20093;-63
2022/02/02 16:45:28;;;;;;;3.15;0.75;;;;;;;;;;4954997;29;20119;-66
2022/02/02 16:47:53;;;;;;;7.68;1.35;;;;;;;;;;4954306;28;20468;-65
2022/02/02 16:50:22;;;;;;;3.10;0.20;;;;;;;;;;4951569;28;20536;-64
2022/02/02 16:52:51;;;;;;;0.32;0.10;;;;;;;;;;4959271;28;20016;-65
2022/02/02 16:55:30;;;;;;;1.92;0.28;;;;;;;;;;4957944;28;20023;-64
2022/02/02 16:58:07;;;;;;;2.92;0.20;;;;;;;;;;4955385;28;20041;-65
2022/02/02 17:25:58;;;;;;;4.57;0.17;;;;;;;;;;4954241;28;20074;-66
2022/02/02 17:30:36;;;;;;;3.63;0.63;;;;;;;;;;4953529;28;20103;-66
2022/02/02 17:33:06;;;;;;;1.27;0.60;;;;;;;;;;4954212;29;20034;-67
2022/02/02 17:38:10;;;;;;;1.50;0.63;;;;;;;;;;4959441;28;20093;-66
2022/02/02 17:40:57;;;;;;;8.40;0.70;;;;;;;;;;4954337;28;20546;-66
2022/02/02 18:13:57;;;;;;;2.47;0.40;;;;;;;;;;4950284;29;20025;-65
2022/02/02 18:20:59;;;;;;;4.00;0.35;;;;;;;;;;4940606;28;20130;-65
2022/02/02 18:23:48;;;;;;;5.18;0.70;;;;;;;;;;4946182;28;20085;-66
2022/02/02 18:26:23;;;;;;;1.77;0.47;;;;;;;;;;4949573;29;20055;-66
2022/02/02 18:34:16;;;;;;;4.72;0.57;;;;;;;;;;4945868;29;20027;-66
2022/02/02 18:47:39;;;;;;;4.70;0.82;;;;;;;;;;4913663;29;20444;-66
2022/02/02 18:50:16;;;;;;;1.90;0.47;;;;;;;;;;4930395;29;20040;-66
2022/02/02 19:03:03;;;;;;;5.68;0.57;;;;;;;;;;4924266;29;20040;-66
2022/02/02 19:05:51;;;;;;;3.22;0.85;;;;;;;;;;4927245;29;20088;-64
2022/02/02 20:12:40;;;;;;;12.45;1.05;;;;;;;;;;4914716;29;20036;-65
2022/02/02 20:15:06;;;;;;;3.17;0.40;;;;;;;;;;4915323;29;20036;-65
2022/02/02 20:17:33;;;;;;;6.07;0.43;;;;;;;;;;4915042;29;20080;-65
2022/02/02 20:20:10;;;;;;;2.70;0.38;;;;;;;;;;4914092;29;20520;-66
2022/02/02 20:22:36;;;;;;;1.25;0.30;;;;;;;;;;4904783;29;20501;-65
2022/02/02 20:25:03;;;;;;;6.60;0.90;;;;;;;;;;4898661;29;20060;-64
2022/02/02 20:27:30;;;;;;;5.47;1.02;;;;;;;;;;4914723;29;20040;-66
2022/02/02 20:29:55;;;;;;;5.43;0.80;;;;;;;;;;4914912;29;20537;-66
2022/02/02 20:32:20;;;;;;;7.13;0.55;;;;;;;;;;4914796;29;20131;-60
2022/02/02 20:34:46;;;;;;;1.40;1.00;;;;;;;;;;4913986;29;20076;-63
2022/02/02 20:37:14;;;;;;;3.13;0.32;;;;;;;;;;4914561;29;20067;-64
2022/02/02 20:39:52;;;;;;;9.68;0.82;;;;;;;;;;4913922;29;20083;-67
2022/02/02 20:42:25;;;;;;;2.92;0.88;;;;;;;;;;4912128;29;20036;-65
2022/02/02 21:09:40;;;;;;;3.40;0.47;;;;;;;;;;4945682;29;20050;-65
2022/02/02 21:14:44;;;;;;;1.35;0.43;;;;;;;;;;4947765;29;20027;-65
2022/02/02 21:17:21;;;;;;;3.75;0.10;;;;;;;;;;4946002;28;20469;-64
2022/02/02 21:22:19;;;;;;;0.00;0.00;;;;;;;;;;4944532;28;20118;-64
2022/02/02 21:24:53;;;;;;;2.63;0.13;;;;;;;;;;4957593;28;20041;-65
2022/02/02 21:29:43;;;;;;;3.88;0.73;;;;;;;;;;4943576;29;20123;-64
2022/02/02 21:32:09;;;;;;;3.40;0.45;;;;;;;;;;4949197;29;20023;-65
2022/02/02 21:34:34;;;;;;;2.55;0.80;;;;;;;;;;4948221;28;20027;-64
2022/02/02 21:37:04;;;;;;;3.88;0.30;;;;;;;;;;4947499;28;20734;-64
2022/02/02 21:39:31;;;;;;;4.53;0.85;;;;;;;;;;4947941;29;20038;-64
2022/02/02 21:41:57;;;;;;;3.88;0.38;;;;;;;;;;4943725;29;20039;-64
2022/02/02 21:44:22;;;;;;;2.42;0.25;;;;;;;;;;4949005;28;20522;-64
2022/02/02 21:46:49;;;;;;;0.57;0.20;;;;;;;;;;4946839;28;20046;-64
2022/02/02 21:49:18;;;;;;;4.65;0.60;;;;;;;;;;4948987;28;20034;-63
2022/02/02 21:52:07;;;;;;;10.70;0.95;;;;;;;;;;4945764;28;20118;-63
2022/02/02 21:54:29;;;;;;;0.38;0.20;;;;;;;;;;4945971;28;20038;-64
2022/02/02 21:56:54;;;;;;;3.83;0.70;;;;;;;;;;4946382;28;20035;-64
2022/02/02 21:59:20;;;;;;;5.18;0.25;;;;;;;;;;4946498;28;20614;-63
2022/02/02 22:01:45;;;;;;;3.03;0.20;;;;;;;;;;4949687;29;20035;-64
2022/02/02 22:04:10;;;;;;;3.72;0.95;;;;;;;;;;4964417;28;20034;-63
2022/02/02 22:06:35;;;;;;;3.88;1.23;;;;;;;;;;4947600;28;20072;-64
2022/02/02 22:09:03;;;;;;;2.03;0.15;;;;;;;;;;4943619;29;20035;-62
2022/02/02 22:11:28;;;;;;;3.40;0.45;;;;;;;;;;4948111;28;20086;-64
2022/02/02 22:14:11;;;;;;;3.78;0.57;;;;;;;;;;4948094;29;20031;-64
2022/02/02 22:16:38;;;;;;;0.73;0.22;;;;;;;;;;4944899;28;20024;-63
2022/02/02 22:19:04;;;;;;;1.55;0.15;;;;;;;;;;4946259;29;20050;-64
2022/02/02 22:21:30;;;;;;;2.72;0.32;;;;;;;;;;4943748;28;20452;-64
2022/02/02 22:23:55;;;;;;;2.47;0.20;;;;;;;;;;4948060;29;20051;-65
2022/02/02 22:26:21;;;;;;;6.45;0.95;;;;;;;;;;4945346;28;20048;-66
2022/02/02 22:28:46;;;;;;;2.20;0.20;;;;;;;;;;4949614;28;20027;-64
2022/02/02 22:31:12;;;;;;;1.73;0.50;;;;;;;;;;4947178;28;20027;-64
2022/02/02 22:33:37;;;;;;;0.20;0.00;;;;;;;;;;4947514;28;20023;-64
2022/02/02 22:36:03;;;;;;;0.43;0.10;;;;;;;;;;4947228;28;20023;-65
2022/02/02 22:38:29;;;;;;;2.80;0.43;;;;;;;;;;4946427;29;20110;-64
2022/02/02 22:40:56;;;;;;;2.47;0.20;;;;;;;;;;4948136;28;20043;-62
2022/02/02 22:43:21;;;;;;;2.17;1.02;;;;;;;;;;4951730;28;20019;-64
2022/02/02 22:45:48;;;;;;;1.27;0.30;;;;;;;;;;4952982;29;20027;-64
2022/02/02 22:48:20;;;;;;;3.67;0.55;;;;;;;;;;4952233;28;20032;-65
2022/02/02 22:50:45;;;;;;;4.95;1.08;;;;;;;;;;4949555;28;20097;-65
2022/02/02 22:53:11;;;;;;;1.75;0.47;;;;;;;;;;4950409;29;20027;-65
2022/02/02 22:55:36;;;;;;;0.95;0.50;;;;;;;;;;4953561;29;20020;-64
2022/02/02 22:58:01;;;;;;;3.50;0.38;;;;;;;;;;4952936;28;20062;-65
2022/02/02 23:00:35;;;;;;;6.97;0.52;;;;;;;;;;4943397;28;20043;-64
2022/02/02 23:03:02;;;;;;;3.88;0.50;;;;;;;;;;4956977;28;20023;-65
2022/02/02 23:08:00;;;;;;;6.07;0.98;;;;;;;;;;4954503;28;20035;-64
2022/02/02 23:10:25;;;;;;;1.20;0.30;;;;;;;;;;4957276;28;20032;-65
2022/02/02 23:12:50;;;;;;;2.58;0.57;;;;;;;;;;4956585;28;20037;-64
2022/02/02 23:15:24;;;;;;;0.20;0.20;;;;;;;;;;4957303;29;20043;-65
2022/02/02 23:17:49;;;;;;;1.88;0.32;;;;;;;;;;4956007;28;20019;-65
2022/02/02 23:20:14;;;;;;;1.05;0.32;;;;;;;;;;4953810;28;20034;-62
2022/02/02 23:22:40;;;;;;;4.30;0.73;;;;;;;;;;4952987;28;20393;-64
2022/02/02 23:25:10;;;;;;;7.25;0.98;;;;;;;;;;4956657;28;20488;-64
2022/02/02 23:27:36;;;;;;;2.80;0.55;;;;;;;;;;4956219;28;20035;-64
2022/02/02 23:30:02;;;;;;;11.18;0.95;;;;;;;;;;4963570;28;20094;-64
2022/02/02 23:32:28;;;;;;;1.08;0.13;;;;;;;;;;4956579;29;20082;-65
2022/02/02 23:34:54;;;;;;;8.18;0.88;;;;;;;;;;4954626;28;20023;-63
2022/02/02 23:37:20;;;;;;;7.22;0.70;;;;;;;;;;4971374;28;20073;-64
2022/02/02 23:39:45;;;;;;;6.32;1.30;;;;;;;;;;4956787;28;20388;-65
2022/02/02 23:42:20;;;;;;;0.40;0.08;;;;;;;;;;4956327;29;20031;-64
2022/02/02 23:44:49;;;;;;;2.80;0.98;;;;;;;;;;4955779;28;20027;-66
2022/02/02 23:47:17;;;;;;;2.73;1.10;;;;;;;;;;4956431;29;20078;-64
2022/02/02 23:49:50;;;;;;;2.70;0.67;;;;;;;;;;4960051;28;20092;-64
2022/02/02 23:52:17;;;;;;;5.10;0.43;;;;;;;;;;4954362;28;20020;-64
2022/02/02 23:54:44;;;;;;;12.27;1.13;;;;;;;;;;4951048;29;20031;-61
2022/02/02 23:57:21;;;;;;;0.98;0.55;;;;;;;;;;4937334;29;20016;-65
